Time;durP1;ratioP1;P1;durP2;ratioP2;P2;SDS_P1;SDS_P2;PMS_P1;PMS_P2;Temp;Humidity;BMP_temperature;BMP_pressure;BME280_temperature;BME280_humidity;BME280_pressure;Samples;Min_cycle;Max_cycle;Signal;HPM_P1;HPM_P2
2021/05/19 00:01:34;;;;;;;3.15;1.63;;;;;;;11.44;74.50;99738.63;5075404;28;20037;-72
2021/05/19 00:04:04;;;;;;;3.05;1.83;;;;;;;11.59;75.02;99754.53;5074809;28;20131;-72
2021/05/19 00:06:33;;;;;;;3.22;1.73;;;;;;;11.54;75.38;99749.50;5074979;28;20548;-70
2021/05/19 00:09:01;;;;;;;4.00;1.60;;;;;;;11.53;75.22;99744.28;5074914;28;20048;-72
2021/05/19 00:11:29;;;;;;;3.58;1.63;;;;;;;11.57;74.86;99743.94;5074827;28;20048;-70
2021/05/19 00:13:57;;;;;;;3.75;1.80;;;;;;;11.51;74.84;99735.53;5074970;28;20460;-70
2021/05/19 00:16:26;;;;;;;4.05;1.83;;;;;;;11.57;74.59;99745.75;5074853;28;20440;-73
2021/05/19 00:18:54;;;;;;;3.30;2.08;;;;;;;11.52;74.67;99746.09;5074684;28;20045;-73
2021/05/19 00:21:22;;;;;;;2.75;1.65;;;;;;;11.51;74.70;99736.38;5074415;28;20041;-73
2021/05/19 00:23:50;;;;;;;2.45;1.50;;;;;;;11.28;74.39;99703.31;5074628;28;20044;-74
2021/05/19 00:26:18;;;;;;;3.45;1.60;;;;;;;11.51;74.62;99740.88;5074157;28;20064;-74
2021/05/19 00:28:50;;;;;;;3.53;1.77;;;;;;;11.52;74.77;99743.44;5074742;28;20056;-74
2021/05/19 00:31:21;;;;;;;4.13;1.80;;;;;;;11.43;75.27;99742.28;5074167;28;20056;-74
2021/05/19 00:33:49;;;;;;;4.65;1.70;;;;;;;11.32;75.13;99715.50;5074542;28;20053;-72
2021/05/19 00:36:17;;;;;;;3.35;1.50;;;;;;;11.35;75.72;99731.28;5074236;28;20036;-73
2021/05/19 00:38:45;;;;;;;4.80;1.80;;;;;;;11.35;75.31;99727.75;5074115;28;20048;-73
2021/05/19 00:41:16;;;;;;;3.00;1.90;;;;;;;11.33;75.62;99722.53;5073880;28;20048;-73
2021/05/19 00:43:44;;;;;;;3.15;1.67;;;;;;;11.28;75.67;99724.66;5074658;28;20052;-73
2021/05/19 00:46:12;;;;;;;4.28;1.70;;;;;;;11.26;75.94;99718.59;5074181;28;20044;-76
2021/05/19 00:48:41;;;;;;;2.53;1.58;;;;;;;11.24;75.90;99717.84;5074410;28;20050;-76
2021/05/19 00:51:09;;;;;;;3.40;2.10;;;;;;;11.24;75.77;99722.34;5073801;28;20097;-75
2021/05/19 00:53:37;;;;;;;3.88;1.88;;;;;;;11.24;75.85;99722.34;5074236;28;20044;-75
2021/05/19 00:56:05;;;;;;;4.18;1.75;;;;;;;11.09;76.46;99735.78;5073612;28;20049;-76
2021/05/19 00:58:34;;;;;;;3.25;1.80;;;;;;;11.19;75.91;99746.66;5074343;28;20041;-75
2021/05/19 01:01:02;;;;;;;3.10;1.83;;;;;;;11.06;76.55;99740.50;5073995;28;20033;-79
2021/05/19 01:03:30;;;;;;;3.42;1.80;;;;;;;11.09;76.55;99745.63;5073770;28;20127;-75
2021/05/19 01:06:01;;;;;;;3.65;1.77;;;;;;;11.06;76.37;99746.69;5073978;28;20044;-75
2021/05/19 01:11:15;;;;;;;3.47;1.90;;;;;;;10.91;77.14;99738.94;5073719;28;20048;-75
2021/05/19 01:13:45;;;;;;;3.35;1.60;;;;;;;10.99;76.73;99744.56;5073900;28;20041;-76
2021/05/19 01:16:15;;;;;;;3.60;2.03;;;;;;;10.89;77.32;99741.66;5073879;28;20048;-75
2021/05/19 01:18:44;;;;;;;4.43;1.70;;;;;;;10.85;77.30;99749.03;5073562;28;20075;-77
2021/05/19 01:21:13;;;;;;;4.00;1.77;;;;;;;10.91;77.13;99738.94;5073606;28;20043;-76
2021/05/19 01:23:41;;;;;;;3.67;1.73;;;;;;;10.80;77.34;99720.97;5073754;28;20046;-75
2021/05/19 01:26:11;;;;;;;3.33;1.98;;;;;;;10.82;77.49;99746.59;5073260;28;20052;-75
2021/05/19 01:28:40;;;;;;;2.85;1.80;;;;;;;10.62;79.03;99741.78;5073711;28;20135;-76
2021/05/19 01:31:12;;;;;;;3.45;1.90;;;;;;;10.73;78.37;99738.38;5073559;28;20429;-78
2021/05/19 01:33:40;;;;;;;4.05;1.73;;;;;;;10.71;78.51;99741.16;5072443;28;20083;-78
2021/05/19 01:36:08;;;;;;;2.30;1.42;;;;;;;10.64;78.78;99731.84;5073341;28;20044;-76
2021/05/19 01:38:36;;;;;;;2.97;1.70;;;;;;;10.50;78.32;99691.94;5073375;28;20165;-77
2021/05/19 01:41:05;;;;;;;4.78;2.15;;;;;;;10.74;78.05;99740.94;5073266;28;20056;-78
2021/05/19 01:43:36;;;;;;;3.78;2.15;;;;;;;10.71;78.67;99743.81;5073368;28;20553;-76
2021/05/19 01:46:06;;;;;;;5.18;1.90;;;;;;;10.69;78.59;99747.53;5073388;28;20048;-78
2021/05/19 01:48:35;;;;;;;3.30;1.80;;;;;;;10.68;78.53;99736.00;5073181;28;20405;-77
2021/05/19 01:51:07;;;;;;;3.10;1.90;;;;;;;10.73;78.19;99739.22;5073487;28;20048;-74
2021/05/19 01:53:37;;;;;;;3.25;1.77;;;;;;;10.70;78.60;99744.75;5073042;28;20048;-75
2021/05/19 01:56:06;;;;;;;4.50;1.95;;;;;;;10.62;78.79;99744.44;5071764;28;20144;-75
2021/05/19 01:58:33;;;;;;;4.90;2.00;;;;;;;10.65;78.33;99744.22;5072981;28;20405;-75
2021/05/19 02:01:05;;;;;;;4.43;1.90;;;;;;;10.63;78.61;99743.50;5073106;28;20049;-73
2021/05/19 02:03:33;;;;;;;3.53;1.60;;;;;;;10.74;77.90;99740.94;5073003;28;20118;-76
2021/05/19 02:06:01;;;;;;;2.42;1.60;;;;;;;10.76;77.53;99744.34;5072818;28;20051;-75
2021/05/19 02:08:29;;;;;;;4.50;1.83;;;;;;;10.75;77.71;99753.31;5072807;28;20049;-75
2021/05/19 02:10:57;;;;;;;4.00;2.00;;;;;;;10.87;76.66;99744.44;5073055;28;20045;-73
2021/05/19 02:13:26;;;;;;;3.22;2.05;;;;;;;10.91;76.75;99746.94;5072483;28;20044;-75
2021/05/19 02:15:56;;;;;;;3.03;1.95;;;;;;;10.79;77.64;99749.47;5072749;28;20040;-75
2021/05/19 02:18:23;;;;;;;4.07;2.20;;;;;;;10.74;77.47;99740.94;5072598;28;20049;-75
2021/05/19 02:20:51;;;;;;;3.55;2.20;;;;;;;10.83;77.37;99742.97;5073823;28;20039;-74
2021/05/19 02:23:19;;;;;;;6.13;2.30;;;;;;;10.77;77.21;99727.38;5077008;28;20045;-73
2021/05/19 02:25:47;;;;;;;4.57;2.15;;;;;;;10.68;77.82;99736.00;5077124;28;20190;-73
2021/05/19 02:28:18;;;;;;;5.15;2.13;;;;;;;10.71;77.67;99734.94;5076644;28;20094;-78
2021/05/19 02:30:47;;;;;;;3.50;2.03;;;;;;;10.71;77.58;99733.16;5075743;28;20447;-78
2021/05/19 02:33:20;;;;;;;4.30;2.03;;;;;;;10.65;77.93;99741.56;5075420;28;20132;-75
2021/05/19 02:35:50;;;;;;;4.13;2.25;;;;;;;10.56;78.22;99739.53;5076676;28;20044;-76
2021/05/19 02:38:18;;;;;;;3.70;2.42;;;;;;;10.55;78.27;99736.00;5075478;28;20048;-75
2021/05/19 02:40:46;;;;;;;4.00;2.03;;;;;;;10.60;77.85;99727.69;5075220;28;20509;-75
2021/05/19 02:43:14;;;;;;;4.15;2.28;;;;;;;10.59;78.10;99726.81;5076370;28;20041;-76
2021/05/19 02:45:42;;;;;;;5.95;2.00;;;;;;;10.57;78.52;99730.56;5076476;28;20056;-75
2021/05/19 02:48:13;;;;;;;4.85;2.42;;;;;;;10.43;78.75;99733.31;5076367;28;20043;-77
2021/05/19 02:50:41;;;;;;;5.10;2.17;;;;;;;9.91;78.91;99655.00;5075321;28;20493;-77
2021/05/19 02:53:11;;;;;;;3.58;2.17;;;;;;;10.50;78.87;99731.94;5076168;28;20044;-77
2021/05/19 02:55:39;;;;;;;4.15;2.13;;;;;;;10.38;79.57;99733.63;5076544;28;20441;-76
2021/05/19 02:58:07;;;;;;;3.42;2.05;;;;;;;10.34;79.38;99723.28;5076302;28;20045;-76
2021/05/19 03:00:35;;;;;;;5.13;2.30;;;;;;;10.47;79.01;99734.81;5076248;28;20044;-75
2021/05/19 03:03:04;;;;;;;4.28;2.08;;;;;;;10.35;79.62;99741.84;5076105;28;20048;-75
2021/05/19 03:05:33;;;;;;;3.45;2.08;;;;;;;10.48;78.96;99740.03;5076194;28;20432;-76
2021/05/19 03:08:01;;;;;;;6.07;2.00;;;;;;;10.50;78.79;99743.44;5076209;28;20470;-77
2021/05/19 03:10:29;;;;;;;5.40;1.98;;;;;;;10.50;79.09;99747.94;5075900;28;20044;-75
2021/05/19 03:12:57;;;;;;;5.15;2.10;;;;;;;10.59;78.45;99736.63;5074938;28;20056;-75
2021/05/19 03:15:26;;;;;;;3.80;2.30;;;;;;;10.51;78.65;99722.97;5075826;28;20048;-76
2021/05/19 03:17:54;;;;;;;5.60;2.40;;;;;;;10.64;78.60;99747.88;5076306;28;20162;-75
2021/05/19 03:20:22;;;;;;;5.10;2.15;;;;;;;10.72;77.84;99747.34;5075742;28;20048;-78
2021/05/19 03:22:53;;;;;;;3.90;1.85;;;;;;;10.69;78.04;99731.53;5075973;28;20041;-77
2021/05/19 03:25:21;;;;;;;4.90;2.13;;;;;;;10.91;77.23;99747.78;5075656;28;20054;-77
2021/05/19 03:27:49;;;;;;;4.88;2.40;;;;;;;11.09;76.67;99756.28;5075726;28;20040;-76
2021/05/19 03:30:18;;;;;;;6.03;2.10;;;;;;;11.22;75.87;99756.31;5075762;28;20047;-77
2021/05/19 03:32:46;;;;;;;3.05;1.83;;;;;;;11.23;75.11;99737.50;5080246;28;20124;-74
2021/05/19 03:35:14;;;;;;;5.03;2.08;;;;;;;11.43;74.85;99754.78;5080437;28;20072;-75
2021/05/19 03:37:44;;;;;;;4.20;2.20;;;;;;;11.60;74.40;99756.25;5079633;28;20064;-73
2021/05/19 03:40:15;;;;;;;4.50;2.15;;;;;;;11.64;74.39;99757.72;5075617;28;20049;-72
2021/05/19 03:42:44;;;;;;;3.55;2.00;;;;;;;11.96;72.74;99758.06;5075577;28;20063;-71
2021/05/19 03:45:14;;;;;;;4.90;2.15;;;;;;;12.33;71.55;99758.84;5075575;28;20040;-71
2021/05/19 03:47:44;;;;;;;5.57;2.08;;;;;;;12.75;69.90;99762.78;5075372;28;20497;-72
2021/05/19 03:50:13;;;;;;;4.47;2.13;;;;;;;13.53;67.09;99763.84;5075200;28;20461;-72
2021/05/19 03:52:41;;;;;;;4.70;2.20;;;;;;;13.67;64.57;99681.34;5075451;28;20386;-72
2021/05/19 03:55:11;;;;;;;3.97;2.10;;;;;;;14.92;61.89;99754.97;5075315;28;20481;-70
2021/05/19 03:57:40;;;;;;;3.75;2.10;;;;;;;15.26;59.81;99752.91;5075200;28;20101;-72
2021/05/19 04:00:11;;;;;;;3.65;1.80;;;;;;;14.87;61.09;99732.06;5075097;28;20044;-76
2021/05/19 04:02:42;;;;;;;;;;;;;;;14.68;61.66;99745.38;5075432;28;20048;-76
2021/05/19 04:05:10;;;;;;;5.63;1.90;;;;;;;14.22;62.61;99738.47;5075086;28;20020;-77
2021/05/19 04:07:38;;;;;;;3.55;2.00;;;;;;;13.88;64.08;99750.25;5074800;28;20044;-73
2021/05/19 04:10:07;;;;;;;3.35;1.70;;;;;;;13.92;64.68;99746.38;5075146;28;20037;-74
2021/05/19 04:12:34;;;;;;;4.65;2.30;;;;;;;13.87;64.87;99748.56;5090237;28;20075;-76
2021/05/19 04:15:05;;;;;;;5.07;1.92;;;;;;;13.77;64.86;99751.16;5074703;28;20048;-77
2021/05/19 04:17:33;;;;;;;4.40;2.35;;;;;;;13.71;66.00;99757.88;5074236;28;20041;-77
2021/05/19 04:20:01;;;;;;;4.32;1.88;;;;;;;13.36;66.46;99759.84;5074870;28;20044;-77
2021/05/19 04:22:29;;;;;;;3.00;1.70;;;;;;;13.40;66.48;99751.41;5074613;28;20040;-77
2021/05/19 04:24:57;;;;;;;3.92;2.03;;;;;;;13.07;67.59;99751.38;5074582;28;20045;-77
2021/05/19 04:27:25;;;;;;;5.60;2.20;;;;;;;13.37;66.32;99751.69;5074301;28;20503;-76
2021/05/19 04:29:53;;;;;;;5.50;2.10;;;;;;;13.35;66.97;99758.13;5073313;28;20057;-77
2021/05/19 04:32:22;;;;;;;4.90;2.10;;;;;;;13.22;67.77;99754.69;5074131;28;20040;-74
2021/05/19 04:34:51;;;;;;;3.42;2.00;;;;;;;13.16;67.67;99756.88;5074488;28;20053;-74
2021/05/19 04:37:19;;;;;;;4.30;2.38;;;;;;;13.25;67.51;99749.13;5074018;28;20047;-78
2021/05/19 04:39:46;;;;;;;4.82;2.15;;;;;;;13.53;66.78;99754.00;5074129;28;20404;-73
2021/05/19 04:42:14;;;;;;;3.75;2.17;;;;;;;13.67;65.93;99761.75;5073992;28;20057;-74
2021/05/19 04:44:45;;;;;;;5.10;2.28;;;;;;;14.01;65.44;99756.34;5073963;28;20109;-74
2021/05/19 04:47:13;;;;;;;4.53;2.30;;;;;;;14.18;64.13;99749.56;5074096;28;20060;-73
2021/05/19 04:49:44;;;;;;;4.70;2.30;;;;;;;14.46;63.32;99753.50;5073952;28;20032;-73
2021/05/19 04:52:12;;;;;;;4.80;2.20;;;;;;;14.40;63.12;99751.34;5074051;28;20148;-71
2021/05/19 04:54:40;;;;;;;6.60;2.47;;;;;;;14.72;61.88;99754.84;5073726;28;20041;-70
2021/05/19 04:57:08;;;;;;;3.28;2.08;;;;;;;15.00;61.33;99752.50;5074005;28;20431;-71
2021/05/19 04:59:36;;;;;;;4.00;2.08;;;;;;;15.18;61.04;99748.22;5073708;28;20382;-70
2021/05/19 05:02:06;;;;;;;4.50;2.50;;;;;;;15.83;58.83;99752.31;5073823;28;20040;-71
2021/05/19 05:04:34;;;;;;;3.42;1.95;;;;;;;15.90;57.99;99756.13;5073409;28;20051;-71
2021/05/19 05:07:03;;;;;;;5.55;2.20;;;;;;;15.72;58.90;99755.94;5073628;28;20036;-72
2021/05/19 05:09:31;;;;;;;5.85;2.45;;;;;;;15.84;58.24;99759.38;5073214;28;20044;-71
2021/05/19 05:11:59;;;;;;;3.97;2.28;;;;;;;15.88;58.26;99758.13;5073656;28;20572;-73
2021/05/19 05:14:27;;;;;;;4.28;2.15;;;;;;;15.77;58.54;99760.91;5073200;28;20056;-74
2021/05/19 05:16:55;;;;;;;3.90;2.22;;;;;;;16.13;58.03;99758.59;5073412;28;20409;-72
2021/05/19 05:19:22;;;;;;;3.67;2.20;;;;;;;15.80;58.88;99751.72;5073218;28;20052;-74
2021/05/19 05:21:50;;;;;;;4.78;2.38;;;;;;;15.95;58.25;99753.88;5073131;28;20075;-74
2021/05/19 05:24:23;;;;;;;7.57;2.65;;;;;;;16.17;58.19;99755.47;5073387;28;20064;-79
2021/05/19 05:26:51;;;;;;;5.70;2.67;;;;;;;15.90;58.95;99757.97;5073179;28;20051;-73
2021/05/19 05:29:19;;;;;;;5.05;2.38;;;;;;;16.10;58.38;99766.94;5073676;28;20113;-72
2021/05/19 05:31:46;;;;;;;3.53;2.30;;;;;;;16.05;58.48;99769.19;5073090;28;20044;-74
2021/05/19 05:34:14;;;;;;;5.93;2.60;;;;;;;15.82;58.99;99766.72;5071816;28;20059;-73
2021/05/19 05:36:42;;;;;;;3.92;2.47;;;;;;;15.88;58.88;99768.88;5072559;28;20048;-74
2021/05/19 05:39:11;;;;;;;8.05;2.53;;;;;;;15.99;59.47;99776.81;5073328;28;20545;-74
2021/05/19 05:41:40;;;;;;;6.90;2.53;;;;;;;15.87;60.31;99779.78;5072844;28;20080;-73
2021/05/19 05:44:08;;;;;;;5.55;2.65;;;;;;;15.81;61.01;99774.94;5073268;28;20041;-75
2021/05/19 05:46:36;;;;;;;8.75;2.90;;;;;;;15.59;60.06;99786.72;5072892;28;20396;-73
2021/05/19 05:49:04;;;;;;;5.15;2.78;;;;;;;15.66;60.14;99782.53;5072693;28;20120;-76
2021/05/19 05:51:32;;;;;;;7.68;3.35;;;;;;;15.73;60.23;99781.00;5072440;28;20045;-74
2021/05/19 05:54:00;;;;;;;8.65;3.20;;;;;;;15.34;60.52;99761.97;5072616;28;20393;-73
2021/05/19 05:56:28;;;;;;;7.63;3.22;;;;;;;15.83;59.84;99784.59;5071124;28;20144;-74
2021/05/19 05:58:57;;;;;;;6.65;3.70;;;;;;;15.89;59.74;99792.09;5072740;28;20540;-76
2021/05/19 06:01:25;;;;;;;9.27;3.70;;;;;;;16.02;59.18;99790.00;5072500;28;20045;-74
2021/05/19 06:03:53;;;;;;;6.32;3.30;;;;;;;16.28;57.28;99789.47;5072280;28;20047;-75
2021/05/19 06:06:21;;;;;;;5.63;3.08;;;;;;;16.55;56.82;99780.72;5070008;28;20032;-76
2021/05/19 06:08:48;;;;;;;7.70;3.00;;;;;;;16.69;56.54;99782.16;5072191;28;20044;-76
2021/05/19 06:11:18;;;;;;;7.15;2.90;;;;;;;16.13;58.18;99783.66;5072268;28;20071;-76
2021/05/19 06:13:47;;;;;;;4.80;2.95;;;;;;;16.15;57.87;99776.28;5066449;28;20048;-78
2021/05/19 06:16:15;;;;;;;8.85;3.60;;;;;;;16.40;58.21;99776.72;5049058;28;20045;-77
2021/05/19 06:18:43;;;;;;;4.68;2.90;;;;;;;16.61;57.62;99780.16;5052609;28;20056;-75
2021/05/19 06:21:14;;;;;;;6.95;3.13;;;;;;;16.92;56.88;99780.00;5052651;28;20049;-75
2021/05/19 06:23:42;;;;;;;7.03;3.10;;;;;;;17.29;56.05;99780.06;5052640;28;20091;-74
2021/05/19 06:26:10;;;;;;;5.93;3.15;;;;;;;17.50;55.08;99774.47;5052443;28;20049;-73
2021/05/19 06:28:38;;;;;;;7.00;3.17;;;;;;;17.73;54.80;99751.53;5052458;28;20045;-73
2021/05/19 06:31:06;;;;;;;5.28;2.97;;;;;;;17.72;53.21;99766.84;5052567;28;20056;-74
2021/05/19 06:33:36;;;;;;;6.95;2.80;;;;;;;18.08;52.47;99766.94;5052359;28;20045;-75
2021/05/19 06:36:05;;;;;;;4.50;3.00;;;;;;;17.88;52.75;99765.38;5052593;28;20041;-74
2021/05/19 06:38:33;;;;;;;6.38;3.20;;;;;;;18.06;52.86;99773.50;5052178;28;20044;-76
2021/05/19 06:41:01;;;;;;;5.22;2.72;;;;;;;18.21;52.89;99751.22;5052378;28;20064;-79
2021/05/19 06:43:29;;;;;;;4.95;3.00;;;;;;;18.47;52.13;99754.00;5057430;28;20048;-76
2021/05/19 06:45:57;;;;;;;6.05;3.20;;;;;;;18.59;51.41;99757.31;5070762;28;20489;-75
2021/05/19 06:48:25;;;;;;;4.50;2.90;;;;;;;18.29;51.66;99763.97;5072535;28;20128;-76
2021/05/19 06:50:54;;;;;;;5.82;3.13;;;;;;;17.98;52.12;99755.38;5072022;28;20040;-78
2021/05/19 06:53:22;;;;;;;6.20;2.90;;;;;;;17.92;52.93;99764.06;5072418;28;20032;-73
2021/05/19 06:55:52;;;;;;;5.68;2.50;;;;;;;18.16;52.44;99756.25;5071115;28;20044;-73
2021/05/19 06:58:20;;;;;;;6.07;2.80;;;;;;;17.83;54.31;99751.47;5072389;28;20036;-71
2021/05/19 07:00:48;;;;;;;5.00;2.67;;;;;;;17.81;55.23;99764.25;5072223;28;20094;-74
2021/05/19 07:03:16;;;;;;;6.28;2.72;;;;;;;17.80;53.48;99762.56;5072363;28;20090;-75
2021/05/19 07:05:43;;;;;;;4.35;2.90;;;;;;;18.29;52.50;99747.75;5071951;28;20052;-71
2021/05/19 07:08:15;;;;;;;4.72;2.58;;;;;;;17.89;54.14;99745.47;5074990;28;20120;-72
2021/05/19 07:10:44;;;;;;;6.55;2.80;;;;;;;17.71;55.17;99738.19;5075952;28;20041;-71
2021/05/19 07:13:17;;;;;;;7.25;2.63;;;;;;;17.58;54.46;99736.81;5075745;28;20028;-74
2021/05/19 07:15:46;;;;;;;7.72;3.10;;;;;;;17.57;55.16;99733.28;5075683;28;20064;-73
2021/05/19 07:18:15;;;;;;;6.28;2.70;;;;;;;17.66;54.90;99750.38;5075489;28;20132;-74
2021/05/19 07:20:47;;;;;;;6.72;3.08;;;;;;;18.05;54.32;99750.19;5075489;28;20045;-74
2021/05/19 07:23:16;;;;;;;5.68;2.90;;;;;;;18.02;53.99;99732.47;5075491;28;20048;-74
2021/05/19 07:25:44;;;;;;;5.13;2.88;;;;;;;17.97;54.17;99751.81;5074660;28;20044;-75
2021/05/19 07:28:13;;;;;;;5.68;2.60;;;;;;;18.14;53.28;99747.44;5075339;28;20090;-74
2021/05/19 07:30:43;;;;;;;4.65;3.00;;;;;;;17.86;52.84;99743.09;5075668;28;20055;-73
2021/05/19 07:33:18;;;;;;;5.68;2.92;;;;;;;17.81;54.59;99742.69;5075298;28;20032;-74
2021/05/19 07:35:46;;;;;;;6.05;2.80;;;;;;;17.89;55.34;99742.78;5074848;28;20037;-76
2021/05/19 07:38:14;;;;;;;7.80;2.97;;;;;;;17.87;54.78;99734.00;5075336;28;20499;-76
2021/05/19 07:40:43;;;;;;;6.18;2.80;;;;;;;17.78;54.57;99732.22;5073734;28;20055;-73
2021/05/19 07:43:11;;;;;;;5.50;2.97;;;;;;;17.79;54.82;99726.66;5074976;28;20482;-75
2021/05/19 07:45:41;;;;;;;7.47;3.15;;;;;;;18.00;54.99;99734.47;5074650;28;20037;-75
2021/05/19 07:48:09;;;;;;;6.70;3.08;;;;;;;17.83;56.32;99732.59;5074200;28;20053;-72
2021/05/19 07:50:37;;;;;;;6.68;3.00;;;;;;;17.97;55.91;99732.94;5075202;28;20082;-72
2021/05/19 07:53:04;;;;;;;7.50;3.30;;;;;;;18.05;55.63;99724.09;5075186;28;20052;-72
2021/05/19 07:55:44;;;;;;;4.72;3.03;;;;;;;18.37;55.90;99733.50;5074421;28;20299;-75
2021/05/19 07:58:16;;;;;;;5.63;3.05;;;;;;;18.50;55.61;99728.53;5074843;28;20090;-75
2021/05/19 08:00:57;;;;;;;5.53;3.65;;;;;;;18.41;54.42;99726.78;5075281;28;20040;-71
2021/05/19 08:03:24;;;;;;;7.43;3.35;;;;;;;18.60;53.04;99726.59;5080110;28;20440;-74
2021/05/19 08:05:51;;;;;;;8.10;3.47;;;;;;;18.80;53.43;99730.84;5074680;28;20090;-73
2021/05/19 08:08:19;;;;;;;5.03;2.80;;;;;;;18.76;53.02;99726.78;5074845;28;20063;-74
2021/05/19 08:10:46;;;;;;;7.45;3.30;;;;;;;18.45;54.68;99714.69;5074738;28;20133;-74
2021/05/19 08:13:13;;;;;;;7.93;3.40;;;;;;;18.79;53.63;99718.34;5074558;28;20097;-75
2021/05/19 08:15:40;;;;;;;6.30;3.05;;;;;;;18.59;54.65;99724.91;5074356;28;20086;-73
2021/05/19 08:18:07;;;;;;;4.75;3.28;;;;;;;18.37;54.81;99706.50;5074138;28;20147;-72
2021/05/19 08:20:36;;;;;;;6.28;3.20;;;;;;;18.45;54.33;99702.03;5074238;28;20052;-73
2021/05/19 08:23:06;;;;;;;6.15;3.42;;;;;;;18.49;52.55;99698.00;5074371;28;20054;-73
2021/05/19 08:25:34;;;;;;;7.07;3.13;;;;;;;18.44;52.58;99712.97;5073882;28;20065;-72
2021/05/19 08:28:07;;;;;;;6.00;3.10;;;;;;;18.72;53.44;99701.09;5074440;28;20040;-81
2021/05/19 08:30:36;;;;;;;6.85;3.28;;;;;;;18.95;51.69;99705.97;5074567;28;20059;-73
2021/05/19 08:33:04;;;;;;;6.53;3.28;;;;;;;19.09;51.80;99708.06;5074360;28;20444;-75
2021/05/19 08:35:33;;;;;;;5.35;3.10;;;;;;;19.12;50.09;99708.59;5073866;28;20111;-73
2021/05/19 08:38:00;;;;;;;5.28;3.22;;;;;;;19.01;51.29;99699.91;5074027;28;20423;-75
2021/05/19 08:40:28;;;;;;;6.88;2.80;;;;;;;18.90;51.64;99702.88;5074224;28;20107;-74
2021/05/19 08:42:57;;;;;;;5.60;3.08;;;;;;;18.56;49.53;99698.22;5074060;28;20045;-73
2021/05/19 08:45:25;;;;;;;5.03;2.78;;;;;;;18.64;50.87;99701.00;5073699;28;20531;-76
2021/05/19 08:48:01;;;;;;;4.50;2.65;;;;;;;18.91;50.79;99696.47;5074047;28;20040;-73
2021/05/19 08:50:29;;;;;;;4.13;2.15;;;;;;;19.00;46.93;99706.31;5074100;28;20524;-74
2021/05/19 08:53:03;;;;;;;5.53;2.20;;;;;;;19.05;46.18;99691.31;5074166;28;20047;-76
2021/05/19 08:55:31;;;;;;;5.70;2.83;;;;;;;19.07;45.84;99696.56;5072578;28;20090;-74
2021/05/19 08:57:59;;;;;;;5.65;2.55;;;;;;;19.03;47.59;99704.16;5073745;28;20040;-74
2021/05/19 09:00:28;;;;;;;5.18;2.60;;;;;;;19.06;47.08;99678.66;5073876;28;20525;-71
2021/05/19 09:03:08;;;;;;;9.07;3.03;;;;;;;19.19;46.94;99692.56;5072520;28;20413;-74
2021/05/19 09:05:38;;;;;;;5.07;2.40;;;;;;;19.33;45.41;99683.88;5073422;28;20102;-73
2021/05/19 09:08:07;;;;;;;6.22;2.65;;;;;;;19.50;43.84;99679.38;5073599;28;20040;-75
2021/05/19 09:10:41;;;;;;;8.00;2.42;;;;;;;19.70;43.90;99675.44;5073605;28;20044;-76
2021/05/19 09:13:31;;;;;;;5.65;2.60;;;;;;;19.75;42.09;99666.81;5073364;28;20666;-73
2021/05/19 09:16:00;;;;;;;6.38;2.60;;;;;;;19.68;40.66;99682.00;5073134;28;20459;-72
2021/05/19 09:18:47;;;;;;;4.07;2.28;;;;;;;19.50;43.37;99665.03;5073167;28;20044;-71
2021/05/19 09:21:32;;;;;;;4.32;2.35;;;;;;;19.22;42.89;99670.66;5073357;28;20098;-70
2021/05/19 09:24:02;;;;;;;4.22;2.10;;;;;;;19.62;40.24;99658.31;5073273;28;20074;-71
2021/05/19 09:26:32;;;;;;;3.83;1.80;;;;;;;19.39;38.82;99675.09;5073662;28;20476;-71
2021/05/19 09:29:24;;;;;;;3.65;1.60;;;;;;;19.28;38.29;99669.97;5073015;28;20040;-69
2021/05/19 09:31:55;;;;;;;2.83;1.65;;;;;;;19.12;39.28;99669.91;5071765;28;20048;-72
2021/05/19 09:34:28;;;;;;;3.90;2.17;;;;;;;19.20;40.44;99672.63;5072699;28;20044;-75
2021/05/19 09:37:14;;;;;;;4.88;2.20;;;;;;;19.58;39.82;99667.75;5073211;28;20399;-73
2021/05/19 09:39:47;;;;;;;5.03;2.10;;;;;;;19.66;40.91;99656.97;5073197;28;20052;-70
2021/05/19 09:42:15;;;;;;;5.93;2.63;;;;;;;19.68;40.03;99652.22;5072690;28;20056;-75
2021/05/19 09:44:45;;;;;;;5.43;1.88;;;;;;;19.72;40.49;99645.50;5071993;28;20052;-74
2021/05/19 09:47:14;;;;;;;3.55;2.10;;;;;;;20.12;41.28;99646.56;5073184;28;20044;-74
2021/05/19 09:49:42;;;;;;;3.47;1.83;;;;;;;20.29;38.84;99648.28;5073204;28;20060;-71
2021/05/19 09:52:18;;;;;;;3.22;1.73;;;;;;;20.37;37.82;99650.16;5073080;28;20083;-71
2021/05/19 09:54:46;;;;;;;4.00;1.70;;;;;;;20.26;37.98;99638.59;5072401;28;20044;-73
2021/05/19 09:57:18;;;;;;;5.22;2.30;;;;;;;20.16;37.22;99645.22;5073344;28;20075;-73
2021/05/19 09:59:49;;;;;;;5.03;2.25;;;;;;;20.33;37.34;99637.94;5072940;28;20520;-70
2021/05/19 10:02:20;;;;;;;5.47;1.92;;;;;;;20.20;37.04;99633.88;5072903;28;20515;-70
2021/05/19 10:04:51;;;;;;;3.30;1.67;;;;;;;20.44;37.97;99635.75;5071054;28;20147;-73
2021/05/19 10:07:20;;;;;;;4.18;2.17;;;;;;;20.30;37.43;99633.72;5072716;28;20109;-74
2021/05/19 10:09:48;;;;;;;4.07;1.98;;;;;;;20.31;37.11;99630.00;5072615;28;20485;-71
2021/05/19 10:12:17;;;;;;;3.90;2.28;;;;;;;19.78;37.71;99636.69;5072900;28;20040;-71
2021/05/19 10:14:47;;;;;;;4.82;2.22;;;;;;;20.01;36.93;99626.09;5060703;28;20056;-70
2021/05/19 10:17:17;;;;;;;4.85;2.13;;;;;;;20.28;36.73;99630.34;5052402;28;20048;-74
2021/05/19 10:19:50;;;;;;;3.70;1.77;;;;;;;20.53;36.90;99626.59;5050158;28;20057;-69
2021/05/19 10:22:20;;;;;;;;;;;;;;;20.82;37.09;99627.91;5053184;28;20401;-72
2021/05/19 10:24:49;;;;;;;3.38;1.70;;;;;;;20.86;37.67;99613.00;5052228;28;19970;-73
2021/05/19 10:27:18;;;;;;;3.50;2.20;;;;;;;20.79;37.18;99561.34;5051072;28;20052;-74
2021/05/19 10:29:56;;;;;;;6.00;2.35;;;;;;;21.32;35.64;99616.75;5052484;28;20048;-71
2021/05/19 10:32:35;;;;;;;7.40;2.50;;;;;;;21.30;34.96;99610.66;5052507;28;20484;-72
2021/05/19 10:35:07;;;;;;;4.55;1.90;;;;;;;21.41;34.88;99596.69;5052243;28;20048;-71
2021/05/19 10:37:46;;;;;;;3.08;1.88;;;;;;;21.06;34.05;99617.00;5052485;28;20044;-71
2021/05/19 10:40:30;;;;;;;5.15;1.88;;;;;;;21.12;36.09;99605.44;5052303;28;20045;-71
2021/05/19 10:43:03;;;;;;;3.28;1.75;;;;;;;20.94;35.06;99599.44;5055929;28;20041;-71
2021/05/19 10:45:47;;;;;;;2.30;1.48;;;;;;;20.70;34.77;99610.34;5078048;28;20063;-73
2021/05/19 10:48:30;;;;;;;6.72;1.92;;;;;;;20.79;36.47;99606.59;5076280;28;20044;-73
2021/05/19 10:51:03;;;;;;;3.15;1.60;;;;;;;20.66;35.33;99600.88;5076423;28;20047;-70
2021/05/19 11:00:08;;;;;;;3.80;1.80;;;;;;;20.15;36.84;99595.63;5075883;28;20057;-74
2021/05/19 11:03:13;;;;;;;3.47;1.60;;;;;;;19.79;36.41;99605.09;5076444;28;20047;-68
2021/05/19 11:06:07;;;;;;;3.65;1.80;;;;;;;19.39;38.01;99604.78;5075253;28;20492;-70
2021/05/19 11:08:37;;;;;;;3.83;1.77;;;;;;;19.05;43.03;99612.94;5074412;28;20055;-72
2021/05/19 11:11:32;;;;;;;4.13;1.42;;;;;;;18.65;44.64;99627.09;5074496;28;20059;-69
2021/05/19 11:14:26;;;;;;;2.08;1.17;;;;;;;18.40;45.06;99620.63;5075162;28;20051;-73
2021/05/19 11:17:12;;;;;;;2.60;1.42;;;;;;;17.72;45.97;99623.91;5075571;28;20047;-73
2021/05/19 11:19:40;;;;;;;7.57;1.70;;;;;;;17.76;47.39;99612.81;5075701;28;20044;-69
2021/05/19 11:22:11;;;;;;;4.13;1.60;;;;;;;17.89;46.85;99605.19;5074146;28;20044;-71
2021/05/19 11:25:05;;;;;;;4.88;1.83;;;;;;;17.81;48.20;99615.91;5075171;28;20132;-71
2021/05/19 11:27:35;;;;;;;3.17;1.80;;;;;;;17.86;48.76;99616.31;5057219;28;20056;-71
2021/05/19 11:30:06;;;;;;;4.72;2.10;;;;;;;17.78;49.48;99614.38;5075485;28;20055;-74
2021/05/19 11:32:35;;;;;;;6.35;2.95;;;;;;;17.68;50.59;99614.41;5075577;28;20463;-69
2021/05/19 11:35:14;;;;;;;5.47;2.40;;;;;;;17.77;51.14;99628.00;5074684;28;20123;-71
2021/05/19 11:37:53;;;;;;;4.07;1.88;;;;;;;17.66;50.99;99619.13;5075346;28;20041;-72
2021/05/19 11:40:23;;;;;;;6.03;2.17;;;;;;;17.72;52.63;99621.22;5074191;28;20386;-71
2021/05/19 11:42:55;;;;;;;5.20;2.40;;;;;;;17.80;51.44;99633.09;5075068;28;20375;-71
2021/05/19 11:45:25;;;;;;;3.20;1.90;;;;;;;17.55;51.61;99632.78;5074604;28;20047;-71
2021/05/19 11:47:55;;;;;;;4.43;2.00;;;;;;;17.48;52.41;99630.88;5075179;28;20044;-73
2021/05/19 11:50:25;;;;;;;5.85;2.05;;;;;;;17.55;52.85;99635.47;5075243;28;20512;-70
2021/05/19 11:52:57;;;;;;;4.28;2.20;;;;;;;17.54;53.44;99639.19;5074558;28;20051;-69
2021/05/19 11:55:32;;;;;;;6.40;2.38;;;;;;;17.50;53.86;99621.63;5074384;28;20396;-76
2021/05/19 11:58:10;;;;;;;4.50;2.30;;;;;;;17.38;54.44;99639.03;5075134;28;20135;-72